Time,TemperatureF,DewpointF,PressureIn,WindDirection,WindDirectionDegrees,WindSpeedMPH,WindSpeedGustMPH,Humidity,HourlyPrecipIn,Conditions,Clouds,dailyrainin,SoftwareType,DateUTC
2013-05-17 00:01:00,67.7,49.5,29.91,SE,135,0.0,0.0,52,0.00,,,0.00,WUHU21636XXSP,2013-05-17 05:01:00,
2013-05-17 00:06:00,67.7,49.5,29.91,North,0,0.0,0.0,52,0.00,,,0.00,WUHU21636XXSP,2013-05-17 05:06:00,
2013-05-17 00:11:00,67.6,50.0,29.91,ESE,112,0.0,0.0,53,0.00,,,0.00,WUHU21636XXSP,2013-05-17 05:11:00,
2013-05-17 00:16:00,67.4,49.8,29.90,East,90,0.0,0.0,53,0.00,,,0.00,WUHU21636XXSP,2013-05-17 05:16:00,
2013-05-17 00:21:00,67.4,49.2,29.91,East,90,0.0,0.0,52,0.00,,,0.00,WUHU21636XXSP,2013-05-17 05:21:00,
2013-05-17 00:26:00,67.0,48.9,29.91,ESE,112,0.0,0.0,52,0.00,,,0.00,WUHU21636XXSP,2013-05-17 05:26:00,
2013-05-17 00:31:00,67.0,48.9,29.91,East,90,0.0,0.0,52,0.00,,,0.00,WUHU21636XXSP,2013-05-17 05:31:00,
2013-05-17 00:36:00,67.0,49.4,29.91,SE,135,0.0,0.0,53,0.00,,,0.00,WUHU21636XXSP,2013-05-17 05:36:00,
2013-05-17 00:41:00,66.8,48.7,29.91,ENE,67,0.0,0.0,52,0.00,,,0.00,WUHU21636XXSP,2013-05-17 05:41:00,
2013-05-17 00:46:00,66.7,47.5,29.91,NE,45,4.0,4.0,50,0.00,,,0.00,WUHU21636XXSP,2013-05-17 05:46:00,
2013-05-17 00:51:00,66.5,47.3,29.91,NNE,22,0.0,4.0,50,0.00,,,0.00,WUHU21636XXSP,2013-05-17 05:51:00,
2013-05-17 00:56:00,66.0,46.4,29.91,NE,45,3.4,4.0,49,0.00,,,0.00,WUHU21636XXSP,2013-05-17 05:56:00,
2013-05-17 01:01:00,66.0,46.4,29.91,ESE,112,0.0,3.4,49,0.00,,,0.00,WUHU21636XXSP,2013-05-17 06:01:00,
2013-05-17 01:06:00,65.8,45.6,29.91,NE,45,1.2,1.2,48,0.00,,,0.00,WUHU21636XXSP,2013-05-17 06:06:00,
2013-05-17 01:11:00,65.7,45.5,29.91,NNW,337,0.0,1.2,48,0.00,,,0.00,WUHU21636XXSP,2013-05-17 06:11:00,
2013-05-17 01:16:00,65.5,45.3,29.92,NE,45,0.0,1.2,48,0.00,,,0.00,WUHU21636XXSP,2013-05-17 06:16:00,
2013-05-17 01:21:00,65.3,45.1,29.92,NNE,22,0.0,0.0,48,0.00,,,0.00,WUHU21636XXSP,2013-05-17 06:21:00,
2013-05-17 01:26:00,65.1,44.3,29.92,SE,135,0.0,0.0,47,0.00,,,0.00,WUHU21636XXSP,2013-05-17 06:26:00,
2013-05-17 01:31:00,64.9,44.2,29.92,SE,135,0.0,0.0,47,0.00,,,0.00,WUHU21636XXSP,2013-05-17 06:31:00,
2013-05-17 01:36:00,64.9,44.7,29.93,West,270,0.0,0.0,48,0.00,,,0.00,WUHU21636XXSP,2013-05-17 06:36:00,
2013-05-17 01:41:00,64.6,44.4,29.92,SW,225,0.0,0.0,48,0.00,,,0.00,WUHU21636XXSP,2013-05-17 06:41:00,
2013-05-17 01:46:00,64.4,43.7,29.92,NE,45,0.0,0.0,47,0.00,,,0.00,WUHU21636XXSP,2013-05-17 06:46:00,
2013-05-17 01:51:00,64.2,44.0,29.92,WSW,247,0.0,0.0,48,0.00,,,0.00,WUHU21636XXSP,2013-05-17 06:51:00,
2013-05-17 01:56:00,63.9,43.9,29.93,East,90,0.0,0.0,48,0.00,,,0.00,WUHU21636XXSP,2013-05-17 06:56:00,
2013-05-17 02:01:00,63.9,43.9,29.93,East,90,0.0,0.0,48,0.00,,,0.00,WUHU21636XXSP,2013-05-17 07:01:00,
2013-05-17 02:06:00,63.8,43.2,29.93,East,90,0.0,0.0,47,0.00,,,0.00,WUHU21636XXSP,2013-05-17 07:06:00,
2013-05-17 02:11:00,63.6,43.6,29.93,SE,135,0.0,0.0,48,0.00,,,0.00,WUHU21636XXSP,2013-05-17 07:11:00,
2013-05-17 02:16:00,63.4,43.9,29.93,SE,135,0.0,0.0,49,0.00,,,0.00,WUHU21636XXSP,2013-05-17 07:16:00,
2013-05-17 02:21:00,63.2,42.0,29.93,East,90,0.0,0.0,46,0.00,,,0.00,WUHU21636XXSP,2013-05-17 07:21:00,
2013-05-17 02:26:00,63.2,42.0,29.94,ESE,112,0.0,0.0,46,0.00,,,0.00,WUHU21636XXSP,2013-05-17 07:26:00,
2013-05-17 02:31:00,63.2,42.6,29.94,ESE,112,0.0,0.0,47,0.00,,,0.00,WUHU21636XXSP,2013-05-17 07:31:00,
2013-05-17 02:36:00,63.0,42.4,29.94,ESE,112,0.0,0.0,47,0.00,,,0.00,WUHU21636XXSP,2013-05-17 07:36:00,
2013-05-17 02:41:00,62.9,41.2,29.94,ESE,112,0.0,0.0,45,0.00,,,0.00,WUHU21636XXSP,2013-05-17 07:41:00,
2013-05-17 02:46:00,62.7,41.6,29.94,ENE,67,0.0,0.0,46,0.00,,,0.00,WUHU21636XXSP,2013-05-17 07:46:00,
2013-05-17 02:51:00,62.7,41.0,29.94,SW,225,0.0,0.0,45,0.00,,,0.00,WUHU21636XXSP,2013-05-17 07:51:00,
2013-05-17 02:56:00,62.3,40.6,29.94,WNW,292,0.0,0.0,45,0.00,,,0.00,WUHU21636XXSP,2013-05-17 07:56:00,
2013-05-17 03:01:00,62.3,40.6,29.94,South,180,0.0,0.0,45,0.00,,,0.00,WUHU21636XXSP,2013-05-17 08:01:00,
2013-05-17 03:06:00,62.3,41.2,29.94,SW,225,0.0,0.0,46,0.00,,,0.00,WUHU21636XXSP,2013-05-17 08:06:00,
2013-05-17 03:11:00,62.1,41.0,29.94,ESE,112,0.0,0.0,46,0.00,,,0.00,WUHU21636XXSP,2013-05-17 08:11:00,
2013-05-17 03:16:00,62.1,40.4,29.94,SE,135,0.0,0.0,45,0.00,,,0.00,WUHU21636XXSP,2013-05-17 08:16:00,
2013-05-17 03:21:00,62.0,39.7,29.94,NNW,337,0.0,0.0,44,0.00,,,0.00,WUHU21636XXSP,2013-05-17 08:21:00,
2013-05-17 03:26:00,61.7,39.5,29.94,ENE,67,0.0,0.0,44,0.00,,,0.00,WUHU21636XXSP,2013-05-17 08:26:00,
2013-05-17 03:31:00,61.5,38.7,29.94,ENE,67,0.0,0.0,43,0.00,,,0.00,WUHU21636XXSP,2013-05-17 08:31:00,
2013-05-17 03:36:00,61.3,38.5,29.94,ESE,112,0.0,0.0,43,0.00,,,0.00,WUHU21636XXSP,2013-05-17 08:36:00,
2013-05-17 03:41:00,61.3,38.5,29.94,WSW,247,0.0,0.0,43,0.00,,,0.00,WUHU21636XXSP,2013-05-17 08:41:00,
2013-05-17 03:46:00,61.1,38.9,29.95,NE,45,0.0,0.0,44,0.00,,,0.00,WUHU21636XXSP,2013-05-17 08:46:00,
2013-05-17 03:51:00,61.0,40.0,29.95,North,0,0.0,0.0,46,0.00,,,0.00,WUHU21636XXSP,2013-05-17 08:51:00,
2013-05-17 03:56:00,60.8,40.4,29.95,East,90,0.0,0.0,47,0.00,,,0.00,WUHU21636XXSP,2013-05-17 08:56:00,
2013-05-17 04:01:00,60.4,41.1,29.95,ENE,67,0.0,0.0,49,0.00,,,0.00,WUHU21636XXSP,2013-05-17 09:01:00,
2013-05-17 04:06:00,59.8,43.7,29.95,SSE,157,0.0,0.0,55,0.00,,,0.00,WUHU21636XXSP,2013-05-17 09:06:00,
2013-05-17 04:11:00,59.1,43.0,29.95,SW,225,0.0,0.0,55,0.00,,,0.00,WUHU21636XXSP,2013-05-17 09:11:00,
2013-05-17 04:16:00,58.5,44.3,29.97,SW,225,0.0,0.0,59,0.00,,,0.00,WUHU21636XXSP,2013-05-17 09:16:00,
2013-05-17 04:21:00,58.0,45.1,29.97,SW,225,0.0,0.0,62,0.00,,,0.00,WUHU21636XXSP,2013-05-17 09:21:00,
2013-05-17 04:26:00,57.5,45.2,29.97,SW,225,0.0,0.0,63,0.00,,,0.00,WUHU21636XXSP,2013-05-17 09:26:00,
2013-05-17 04:31:00,57.0,45.5,29.98,SW,225,0.0,0.0,65,0.00,,,0.00,WUHU21636XXSP,2013-05-17 09:31:00,
2013-05-17 04:36:00,56.4,45.3,29.99,SW,225,0.0,0.0,66,0.00,,,0.00,WUHU21636XXSP,2013-05-17 09:36:00,
2013-05-17 04:41:00,56.1,45.0,29.99,SW,225,0.0,0.0,66,0.02,,,0.00,WUHU21636XXSP,2013-05-17 09:41:00,
2013-05-17 04:47:00,55.9,46.0,30.00,SW,225,0.0,0.0,69,0.02,,,0.02,WUHU21636XXSP,2013-05-17 09:47:00,
2013-05-17 04:52:00,55.7,46.5,30.00,SW,225,0.0,0.0,71,0.02,,,0.02,WUHU21636XXSP,2013-05-17 09:52:00,
2013-05-17 04:57:00,55.4,46.3,30.01,SW,225,0.0,0.0,71,0.02,,,0.02,WUHU21636XXSP,2013-05-17 09:57:00,
2013-05-17 05:02:00,55.4,46.7,30.01,SW,225,0.0,0.0,72,0.02,,,0.02,WUHU21636XXSP,2013-05-17 10:02:00,
2013-05-17 05:07:00,55.1,46.4,30.02,SW,225,0.0,0.0,72,0.02,,,0.02,WUHU21636XXSP,2013-05-17 10:07:00,
2013-05-17 05:12:00,54.9,46.2,30.02,SW,225,0.0,0.0,72,0.02,,,0.02,WUHU21636XXSP,2013-05-17 10:12:00,
2013-05-17 05:17:00,54.5,46.1,30.02,SW,225,0.0,0.0,73,0.04,,,0.04,WUHU21636XXSP,2013-05-17 10:17:00,
2013-05-17 05:22:00,54.2,45.8,30.02,SW,225,0.0,0.0,73,0.04,,,0.04,WUHU21636XXSP,2013-05-17 10:22:00,
2013-05-17 05:27:00,53.5,45.9,30.01,SW,225,0.0,0.0,75,0.06,,,0.06,WUHU21636XXSP,2013-05-17 10:27:00,
2013-05-17 05:32:00,53.2,45.9,30.01,SW,225,0.0,0.0,76,0.08,,,0.06,WUHU21636XXSP,2013-05-17 10:32:00,
2013-05-17 05:37:00,53.0,45.4,30.02,SW,225,0.0,0.0,75,0.10,,,0.10,WUHU21636XXSP,2013-05-17 10:37:00,
2013-05-17 05:42:00,52.6,45.3,30.02,SW,225,0.0,0.0,76,0.10,,,0.10,WUHU21636XXSP,2013-05-17 10:42:00,
2013-05-17 05:47:00,52.6,45.7,30.02,SW,225,0.0,0.0,77,0.10,,,0.10,WUHU21636XXSP,2013-05-17 10:47:00,
2013-05-17 05:52:00,52.6,45.7,30.03,SW,225,0.0,0.0,77,0.10,,,0.12,WUHU21636XXSP,2013-05-17 10:52:00,
2013-05-17 05:57:00,52.6,45.7,30.03,SW,225,0.0,0.0,77,0.10,,,0.12,WUHU21636XXSP,2013-05-17 10:57:00,
2013-05-17 06:02:00,52.6,45.7,30.03,SW,225,0.0,0.0,77,0.12,,,0.14,WUHU21636XXSP,2013-05-17 11:02:00,
2013-05-17 06:07:00,52.6,45.7,30.03,SW,225,0.0,0.0,77,0.12,,,0.14,WUHU21636XXSP,2013-05-17 11:07:00,
2013-05-17 06:12:00,52.6,46.0,30.02,SW,225,0.0,0.0,78,0.12,,,0.14,WUHU21636XXSP,2013-05-17 11:12:00,
2013-05-17 06:17:00,52.5,45.9,30.02,ESE,112,0.0,0.0,78,0.12,,,0.14,WUHU21636XXSP,2013-05-17 11:17:00,
2013-05-17 06:22:00,52.3,45.7,30.02,ESE,112,0.0,0.0,78,0.14,,,0.18,WUHU21636XXSP,2013-05-17 11:22:00,
2013-05-17 06:27:00,52.1,45.5,30.03,ESE,112,0.0,0.0,78,0.14,,,0.18,WUHU21636XXSP,2013-05-17 11:27:00,
2013-05-17 06:32:00,51.9,45.3,30.03,SE,135,0.0,0.0,78,0.12,,,0.21,WUHU21636XXSP,2013-05-17 11:32:00,
2013-05-17 06:37:00,51.9,45.6,30.03,SE,135,0.0,0.0,79,0.12,,,0.21,WUHU21636XXSP,2013-05-17 11:37:00,
2013-05-17 06:42:00,51.7,45.1,30.02,NE,45,0.0,0.0,78,0.14,,,0.25,WUHU21636XXSP,2013-05-17 11:42:00,
2013-05-17 06:47:00,51.6,45.3,30.02,East,90,0.0,0.0,79,0.14,,,0.25,WUHU21636XXSP,2013-05-17 11:47:00,
2013-05-17 06:52:00,50.9,44.7,30.02,NNE,22,0.0,0.0,79,0.14,,,0.25,WUHU21636XXSP,2013-05-17 11:52:00,
2013-05-17 06:57:00,50.7,44.5,30.02,West,270,0.0,0.0,79,0.16,,,0.29,WUHU21636XXSP,2013-05-17 11:57:00,
2013-05-17 07:02:00,50.2,44.0,30.03,SW,225,0.0,0.0,79,0.16,,,0.29,WUHU21636XXSP,2013-05-17 12:02:00,
2013-05-17 07:07:00,50.0,44.1,30.03,WSW,247,0.0,0.0,80,0.16,,,0.31,WUHU21636XXSP,2013-05-17 12:07:00,
2013-05-17 07:12:00,50.0,44.1,30.03,South,180,0.0,0.0,80,0.18,,,0.33,WUHU21636XXSP,2013-05-17 12:12:00,
2013-05-17 07:17:00,50.0,44.1,30.04,SSE,157,0.0,0.0,80,0.20,,,0.35,WUHU21636XXSP,2013-05-17 12:17:00,
2013-05-17 07:22:00,50.0,44.1,30.05,SE,135,0.0,0.0,80,0.18,,,0.37,WUHU21636XXSP,2013-05-17 12:22:00,
2013-05-17 07:27:00,50.0,44.1,30.04,WNW,292,0.0,0.0,80,0.20,,,0.39,WUHU21636XXSP,2013-05-17 12:27:00,
2013-05-17 07:32:00,49.8,44.2,30.04,WNW,292,0.0,0.0,81,0.20,,,0.39,WUHU21636XXSP,2013-05-17 12:32:00,
2013-05-17 07:37:00,49.7,43.8,30.04,ENE,67,0.0,0.0,80,0.20,,,0.41,WUHU21636XXSP,2013-05-17 12:37:00,
2013-05-17 07:42:00,49.2,43.7,30.05,ENE,67,0.0,0.0,81,0.20,,,0.41,WUHU21636XXSP,2013-05-17 12:42:00,
2013-05-17 07:47:00,49.0,43.5,30.06,WSW,247,0.0,0.0,81,0.18,,,0.43,WUHU21636XXSP,2013-05-17 12:47:00,
2013-05-17 07:52:00,48.8,43.3,30.05,WSW,247,0.0,0.0,81,0.18,,,0.43,WUHU21636XXSP,2013-05-17 12:52:00,
2013-05-17 07:57:00,49.0,43.5,30.04,ESE,112,0.0,0.0,81,0.18,,,0.47,WUHU21636XXSP,2013-05-17 12:57:00,
2013-05-17 08:02:00,49.0,43.5,30.05,ESE,112,0.0,0.0,81,0.16,,,0.47,WUHU21636XXSP,2013-05-17 13:02:00,
2013-05-17 08:07:00,49.0,43.8,30.04,ESE,112,0.0,0.0,82,0.20,,,0.49,WUHU21636XXSP,2013-05-17 13:07:00,
2013-05-17 08:12:00,49.0,43.8,30.05,ESE,112,0.0,0.0,82,0.20,,,0.51,WUHU21636XXSP,2013-05-17 13:12:00,
2013-05-17 08:17:00,48.8,43.6,30.05,SE,135,0.0,0.0,82,0.20,,,0.51,WUHU21636XXSP,2013-05-17 13:17:00,
2013-05-17 08:22:00,49.0,43.8,30.05,ESE,112,0.0,0.0,82,0.18,,,0.53,WUHU21636XXSP,2013-05-17 13:22:00,
2013-05-17 08:27:00,49.0,43.8,30.05,ESE,112,0.0,0.0,82,0.18,,,0.53,WUHU21636XXSP,2013-05-17 13:27:00,
2013-05-17 08:32:00,49.0,43.8,30.05,ESE,112,0.0,0.0,82,0.16,,,0.55,WUHU21636XXSP,2013-05-17 13:32:00,
2013-05-17 08:37:00,49.0,43.8,30.05,ESE,112,0.0,0.0,82,0.16,,,0.55,WUHU21636XXSP,2013-05-17 13:37:00,
2013-05-17 08:42:00,49.2,44.0,30.05,SE,135,0.0,0.0,82,0.16,,,0.57,WUHU21636XXSP,2013-05-17 13:42:00,
2013-05-17 08:47:00,49.5,44.2,30.05,SE,135,0.0,0.0,82,0.16,,,0.57,WUHU21636XXSP,2013-05-17 13:47:00,
2013-05-17 08:52:00,49.5,44.2,30.04,ESE,112,0.0,0.0,82,0.14,,,0.59,WUHU21636XXSP,2013-05-17 13:52:00,
2013-05-17 08:57:00,49.0,43.8,30.04,NW,315,0.0,0.0,82,0.14,,,0.59,WUHU21636XXSP,2013-05-17 13:57:00,
2013-05-17 09:02:00,49.0,43.8,30.04,SE,135,0.0,0.0,82,0.10,,,0.59,WUHU21636XXSP,2013-05-17 14:02:00,
2013-05-17 09:07:00,49.0,43.8,30.03,ENE,67,0.0,0.0,82,0.10,,,0.59,WUHU21636XXSP,2013-05-17 14:07:00,
2013-05-17 09:12:00,49.0,43.8,30.03,East,90,0.0,0.0,82,0.10,,,0.59,WUHU21636XXSP,2013-05-17 14:12:00,
2013-05-17 09:17:00,49.5,44.2,30.03,West,270,0.0,0.0,82,0.10,,,0.59,WUHU21636XXSP,2013-05-17 14:17:00,
2013-05-17 09:22:00,49.5,44.2,30.03,WSW,247,0.0,0.0,82,0.10,,,0.59,WUHU21636XXSP,2013-05-17 14:22:00,
2013-05-17 09:27:00,49.7,44.4,30.03,WSW,247,0.0,0.0,82,0.10,,,0.59,WUHU21636XXSP,2013-05-17 14:27:00,
2013-05-17 09:32:00,49.7,44.7,30.03,WSW,247,0.0,0.0,83,0.10,,,0.59,WUHU21636XXSP,2013-05-17 14:32:00,
2013-05-17 09:37:00,49.8,44.8,30.03,SW,225,0.0,0.0,83,0.10,,,0.59,WUHU21636XXSP,2013-05-17 14:37:00,
2013-05-17 09:42:00,49.8,44.8,30.03,West,270,0.0,0.0,83,0.10,,,0.59,WUHU21636XXSP,2013-05-17 14:42:00,
2013-05-17 09:47:00,49.8,44.8,30.02,NNE,22,0.0,0.0,83,0.10,,,0.59,WUHU21636XXSP,2013-05-17 14:47:00,
2013-05-17 09:52:00,50.0,45.0,30.02,NNE,22,0.0,0.0,83,0.10,,,0.59,WUHU21636XXSP,2013-05-17 14:52:00,
2013-05-17 09:57:00,49.8,44.8,30.02,NE,45,0.0,0.0,83,0.02,,,0.61,WUHU21636XXSP,2013-05-17 14:57:00,
2013-05-17 10:02:00,50.0,45.0,30.02,East,90,0.0,0.0,83,0.02,,,0.61,WUHU21636XXSP,2013-05-17 15:02:00,
2013-05-17 10:07:00,50.0,45.0,30.02,North,0,0.0,0.0,83,0.04,,,0.63,WUHU21636XXSP,2013-05-17 15:07:00,
2013-05-17 10:12:00,49.8,44.8,30.02,North,0,0.0,0.0,83,0.04,,,0.63,WUHU21636XXSP,2013-05-17 15:12:00,
2013-05-17 10:17:00,50.4,45.4,30.02,NE,45,0.0,0.0,83,0.08,,,0.68,WUHU21636XXSP,2013-05-17 15:17:00,
2013-05-17 10:22:00,50.6,45.6,30.02,East,90,0.0,0.0,83,0.08,,,0.68,WUHU21636XXSP,2013-05-17 15:22:00,
2013-05-17 10:27:00,50.7,45.7,30.03,East,90,0.0,0.0,83,0.08,,,0.68,WUHU21636XXSP,2013-05-17 15:27:00,
2013-05-17 10:32:00,50.7,45.7,30.02,East,90,0.0,0.0,83,0.08,,,0.68,WUHU21636XXSP,2013-05-17 15:32:00,
2013-05-17 10:37:00,50.9,46.0,30.03,NNE,22,0.0,0.0,83,0.08,,,0.68,WUHU21636XXSP,2013-05-17 15:37:00,
2013-05-17 10:42:00,51.3,46.4,30.03,NW,315,0.0,0.0,83,0.08,,,0.68,WUHU21636XXSP,2013-05-17 15:42:00,
2013-05-17 10:47:00,51.6,46.6,30.03,West,270,0.0,0.0,83,0.08,,,0.68,WUHU21636XXSP,2013-05-17 15:47:00,
2013-05-17 10:52:00,51.9,47.2,30.02,West,270,0.0,0.0,84,0.10,,,0.69,WUHU21636XXSP,2013-05-17 15:52:00,
2013-05-17 10:57:00,52.3,47.6,30.02,SSE,157,0.0,0.0,84,0.10,,,0.69,WUHU21636XXSP,2013-05-17 15:57:00,
2013-05-17 11:02:00,52.5,47.8,30.02,SSE,157,0.0,0.0,84,0.08,,,0.69,WUHU21636XXSP,2013-05-17 16:02:00,
2013-05-17 11:07:00,52.6,47.9,30.02,SSE,157,0.0,0.0,84,0.08,,,0.69,WUHU21636XXSP,2013-05-17 16:07:00,
2013-05-17 11:12:00,52.6,47.9,30.02,SSE,157,0.0,0.0,84,0.08,,,0.69,WUHU21636XXSP,2013-05-17 16:12:00,
2013-05-17 11:17:00,52.8,47.8,30.02,SSE,157,0.0,0.0,83,0.08,,,0.69,WUHU21636XXSP,2013-05-17 16:17:00,
2013-05-17 11:22:00,53.0,48.0,30.02,SSE,157,0.0,0.0,83,0.08,,,0.69,WUHU21636XXSP,2013-05-17 16:22:00,
2013-05-17 11:27:00,53.5,48.5,30.02,SSE,157,0.0,0.0,83,0.08,,,0.69,WUHU21636XXSP,2013-05-17 16:27:00,
2013-05-17 11:32:00,53.5,48.5,30.02,SW,225,0.0,0.0,83,0.04,,,0.71,WUHU21636XXSP,2013-05-17 16:32:00,
2013-05-17 11:37:00,53.8,48.7,30.02,NW,315,0.0,0.0,83,0.04,,,0.71,WUHU21636XXSP,2013-05-17 16:37:00,
2013-05-17 11:42:00,54.0,48.9,30.01,East,90,0.0,0.0,83,0.04,,,0.71,WUHU21636XXSP,2013-05-17 16:42:00,
2013-05-17 11:47:00,54.2,49.1,30.01,East,90,0.0,0.0,83,0.04,,,0.71,WUHU21636XXSP,2013-05-17 16:47:00,
2013-05-17 11:52:00,54.5,49.5,30.01,ENE,67,0.0,0.0,83,0.04,,,0.71,WUHU21636XXSP,2013-05-17 16:52:00,
2013-05-17 11:57:00,54.5,49.5,30.02,WNW,292,0.0,0.0,83,0.04,,,0.71,WUHU21636XXSP,2013-05-17 16:57:00,
2013-05-17 12:02:00,54.7,50.0,30.02,WNW,292,0.0,0.0,84,0.02,,,0.71,WUHU21636XXSP,2013-05-17 17:02:00,
2013-05-17 12:07:00,55.1,50.4,30.01,West,270,0.0,0.0,84,0.02,,,0.71,WUHU21636XXSP,2013-05-17 17:07:00,
2013-05-17 12:12:00,55.1,50.4,30.01,SE,135,0.0,0.0,84,0.02,,,0.71,WUHU21636XXSP,2013-05-17 17:12:00,
2013-05-17 12:17:00,55.4,50.4,30.01,SE,135,0.0,0.0,83,0.02,,,0.71,WUHU21636XXSP,2013-05-17 17:17:00,
2013-05-17 12:22:00,55.7,50.6,30.01,SE,135,0.0,0.0,83,0.02,,,0.71,WUHU21636XXSP,2013-05-17 17:22:00,
2013-05-17 12:27:00,56.3,51.2,30.02,SE,135,0.0,0.0,83,0.02,,,0.71,WUHU21636XXSP,2013-05-17 17:27:00,
2013-05-17 12:32:00,56.4,51.3,30.01,East,90,0.0,0.0,83,0.02,,,0.71,WUHU21636XXSP,2013-05-17 17:32:00,
2013-05-17 12:37:00,56.4,51.3,30.01,West,270,0.0,0.0,83,0.02,,,0.71,WUHU21636XXSP,2013-05-17 17:37:00,
2013-05-17 12:42:00,56.8,51.7,30.01,SW,225,0.0,0.0,83,0.02,,,0.71,WUHU21636XXSP,2013-05-17 17:42:00,
2013-05-17 12:47:00,57.0,51.6,30.01,ESE,112,0.0,0.0,82,0.02,,,0.71,WUHU21636XXSP,2013-05-17 17:47:00,
2013-05-17 12:52:00,57.2,51.8,30.01,West,270,0.0,0.0,82,0.02,,,0.71,WUHU21636XXSP,2013-05-17 17:52:00,
2013-05-17 12:57:00,57.3,51.9,30.02,West,270,0.0,0.0,82,0.02,,,0.71,WUHU21636XXSP,2013-05-17 17:57:00,
2013-05-17 13:02:00,57.8,52.3,30.02,South,180,0.0,0.0,82,0.00,,,0.71,WUHU21636XXSP,2013-05-17 18:02:00,
2013-05-17 13:07:00,58.0,52.5,30.02,South,180,0.0,0.0,82,0.00,,,0.71,WUHU21636XXSP,2013-05-17 18:07:00,
2013-05-17 13:12:00,58.3,52.8,30.02,WNW,292,0.0,0.0,82,0.00,,,0.71,WUHU21636XXSP,2013-05-17 18:12:00,
2013-05-17 13:17:00,58.7,53.2,30.01,WNW,292,0.0,0.0,82,0.00,,,0.71,WUHU21636XXSP,2013-05-17 18:17:00,
2013-05-17 13:22:00,58.7,53.2,30.01,South,180,0.0,0.0,82,0.00,,,0.71,WUHU21636XXSP,2013-05-17 18:22:00,
2013-05-17 13:27:00,58.7,53.2,30.02,NW,315,0.0,0.0,82,0.00,,,0.71,WUHU21636XXSP,2013-05-17 18:27:00,
2013-05-17 13:32:00,58.9,53.5,30.01,NW,315,0.0,0.0,82,0.00,,,0.71,WUHU21636XXSP,2013-05-17 18:32:00,
2013-05-17 13:37:00,59.1,53.7,30.01,SSW,202,0.0,0.0,82,0.00,,,0.71,WUHU21636XXSP,2013-05-17 18:37:00,
2013-05-17 13:42:00,59.2,53.8,30.02,SSW,202,0.0,0.0,82,0.00,,,0.71,WUHU21636XXSP,2013-05-17 18:42:00,
2013-05-17 13:47:00,59.4,54.0,30.01,SSW,202,0.0,0.0,82,0.00,,,0.71,WUHU21636XXSP,2013-05-17 18:47:00,
2013-05-17 13:52:00,59.8,54.4,30.01,South,180,0.0,0.0,82,0.00,,,0.71,WUHU21636XXSP,2013-05-17 18:52:00,
2013-05-17 13:57:00,59.8,54.1,30.01,South,180,0.0,0.0,81,0.00,,,0.71,WUHU21636XXSP,2013-05-17 18:57:00,
2013-05-17 14:02:00,60.2,54.7,30.01,South,180,0.0,0.0,82,0.00,,,0.71,WUHU21636XXSP,2013-05-17 19:02:00,
2013-05-17 14:07:00,60.2,54.4,30.02,WSW,247,0.0,0.0,81,0.00,,,0.71,WUHU21636XXSP,2013-05-17 19:07:00,
2013-05-17 14:12:00,60.2,54.4,30.02,WSW,247,0.0,0.0,81,0.00,,,0.71,WUHU21636XXSP,2013-05-17 19:12:00,
2013-05-17 14:17:00,60.2,54.4,30.02,West,270,0.0,0.0,81,0.00,,,0.71,WUHU21636XXSP,2013-05-17 19:17:00,
2013-05-17 14:22:00,60.4,54.6,30.02,West,270,0.0,0.0,81,0.00,,,0.71,WUHU21636XXSP,2013-05-17 19:22:00,
2013-05-17 14:27:00,60.2,54.4,30.02,NNE,22,0.0,0.0,81,0.00,,,0.71,WUHU21636XXSP,2013-05-17 19:27:00,
2013-05-17 14:32:00,60.2,54.4,30.01,NNE,22,0.0,0.0,81,0.00,,,0.71,WUHU21636XXSP,2013-05-17 19:32:00,
2013-05-17 14:37:00,60.4,54.6,30.02,NNE,22,0.0,0.0,81,0.00,,,0.71,WUHU21636XXSP,2013-05-17 19:37:00,
2013-05-17 14:42:00,60.6,54.8,30.01,ENE,67,0.0,0.0,81,0.00,,,0.71,WUHU21636XXSP,2013-05-17 19:42:00,
2013-05-17 14:48:00,60.6,54.8,30.01,ENE,67,0.0,0.0,81,0.00,,,0.71,WUHU21636XXSP,2013-05-17 19:48:00,
2013-05-17 14:53:00,60.8,55.0,30.01,ENE,67,0.0,0.0,81,0.00,,,0.71,WUHU21636XXSP,2013-05-17 19:53:00,
2013-05-17 14:58:00,61.1,55.0,30.01,ENE,67,0.0,0.0,80,0.00,,,0.71,WUHU21636XXSP,2013-05-17 19:58:00,
2013-05-17 15:03:00,61.3,55.5,30.01,ESE,112,0.0,0.0,81,0.00,,,0.71,WUHU21636XXSP,2013-05-17 20:03:00,
2013-05-17 15:08:00,61.5,55.7,30.01,ESE,112,0.0,0.0,81,0.00,,,0.71,WUHU21636XXSP,2013-05-17 20:08:00,
2013-05-17 15:13:00,61.7,55.6,30.00,SE,135,0.0,0.0,80,0.00,,,0.71,WUHU21636XXSP,2013-05-17 20:13:00,
2013-05-17 15:18:00,62.1,55.9,30.00,SE,135,0.0,0.0,80,0.00,,,0.71,WUHU21636XXSP,2013-05-17 20:18:00,
2013-05-17 15:23:00,62.1,55.9,30.00,SE,135,0.0,0.0,80,0.00,,,0.71,WUHU21636XXSP,2013-05-17 20:23:00,
2013-05-17 15:28:00,62.1,55.2,30.00,WSW,247,0.0,0.0,78,0.00,,,0.71,WUHU21636XXSP,2013-05-17 20:28:00,
2013-05-17 15:33:00,61.7,55.2,30.00,NW,315,0.0,0.0,79,0.02,,,0.73,WUHU21636XXSP,2013-05-17 20:33:00,
2013-05-17 15:38:00,62.1,55.9,30.00,West,270,0.0,0.0,80,0.02,,,0.73,WUHU21636XXSP,2013-05-17 20:38:00,
2013-05-17 15:42:00,62.1,55.9,30.00,WSW,247,0.0,0.0,80,0.02,,,0.73,WUHU21636XXSP,2013-05-17 20:42:00,
2013-05-17 15:48:00,62.1,55.5,29.99,WSW,247,0.0,0.0,79,0.02,,,0.73,WUHU21636XXSP,2013-05-17 20:48:00,
2013-05-17 15:53:00,62.1,55.9,29.99,WNW,292,0.0,0.0,80,0.02,,,0.73,WUHU21636XXSP,2013-05-17 20:53:00,
2013-05-17 15:58:00,62.1,55.9,29.99,WNW,292,0.0,0.0,80,0.02,,,0.73,WUHU21636XXSP,2013-05-17 20:58:00,
2013-05-17 16:03:00,62.3,56.1,29.99,West,270,0.0,0.0,80,0.02,,,0.73,WUHU21636XXSP,2013-05-17 21:03:00,
2013-05-17 16:08:00,62.3,56.1,29.99,West,270,0.0,0.0,80,0.02,,,0.73,WUHU21636XXSP,2013-05-17 21:08:00,
2013-05-17 16:13:00,62.5,56.3,29.99,WNW,292,0.0,0.0,80,0.02,,,0.73,WUHU21636XXSP,2013-05-17 21:13:00,
2013-05-17 16:18:00,62.7,56.2,29.99,WNW,292,0.0,0.0,79,0.02,,,0.73,WUHU21636XXSP,2013-05-17 21:18:00,
2013-05-17 16:22:00,63.2,56.7,29.99,SSE,157,0.0,0.0,79,0.02,,,0.73,WUHU21636XXSP,2013-05-17 21:22:00,
2013-05-17 16:28:00,63.4,56.9,29.99,SSE,157,0.0,0.0,79,0.02,,,0.73,WUHU21636XXSP,2013-05-17 21:28:00,
2013-05-17 16:33:00,63.6,57.1,29.99,NW,315,0.0,0.0,79,0.02,,,0.73,WUHU21636XXSP,2013-05-17 21:33:00,
2013-05-17 16:38:00,63.8,57.3,29.99,NW,315,0.0,0.0,79,0.02,,,0.73,WUHU21636XXSP,2013-05-17 21:38:00,
2013-05-17 16:43:00,63.9,57.0,29.99,NW,315,0.0,0.0,78,0.02,,,0.73,WUHU21636XXSP,2013-05-17 21:43:00,
2013-05-17 16:48:00,63.9,57.0,29.99,NW,315,0.0,0.0,78,0.02,,,0.73,WUHU21636XXSP,2013-05-17 21:48:00,
2013-05-17 16:53:00,64.6,57.6,29.99,ESE,112,0.0,0.0,78,0.02,,,0.73,WUHU21636XXSP,2013-05-17 21:53:00,
2013-05-17 16:58:00,64.9,57.6,29.99,ESE,112,0.0,0.0,77,0.02,,,0.73,WUHU21636XXSP,2013-05-17 21:58:00,
2013-05-17 17:03:00,65.5,58.2,29.98,SSE,157,0.0,0.0,77,0.00,,,0.73,WUHU21636XXSP,2013-05-17 22:03:00,
2013-05-17 17:08:00,65.8,58.2,29.99,ESE,112,0.0,0.0,76,0.00,,,0.73,WUHU21636XXSP,2013-05-17 22:08:00,
2013-05-17 17:13:00,66.0,57.6,29.98,North,0,0.0,0.0,74,0.00,,,0.73,WUHU21636XXSP,2013-05-17 22:13:00,
2013-05-17 17:18:00,65.8,56.7,29.99,NE,45,5.8,5.8,72,0.00,,,0.73,WUHU21636XXSP,2013-05-17 22:18:00,
2013-05-17 17:23:00,66.0,57.3,29.99,East,81,2.9,5.8,73,0.00,,,0.73,WUHU21636XXSP,2013-05-17 22:23:00,
2013-05-17 17:28:00,66.7,57.9,29.98,ENE,67,8.0,8.0,73,0.00,,,0.73,WUHU21636XXSP,2013-05-17 22:28:00,
2013-05-17 17:33:00,66.8,57.6,29.98,SE,135,1.2,8.0,72,0.00,,,0.73,WUHU21636XXSP,2013-05-17 22:33:00,
2013-05-17 17:38:00,67.0,57.8,29.98,SSE,157,0.0,8.0,72,0.00,,,0.73,WUHU21636XXSP,2013-05-17 22:38:00,
2013-05-17 17:43:00,67.4,57.8,29.97,East,90,0.0,0.0,71,0.00,,,0.73,WUHU21636XXSP,2013-05-17 22:43:00,
2013-05-17 17:48:00,67.4,57.8,29.97,ESE,112,0.0,0.0,71,0.00,,,0.73,WUHU21636XXSP,2013-05-17 22:48:00,
2013-05-17 17:53:00,67.2,58.0,29.97,South,180,6.2,6.2,72,0.00,,,0.73,WUHU21636XXSP,2013-05-17 22:53:00,
2013-05-17 17:58:00,67.0,58.2,29.97,ESE,112,0.0,6.2,73,0.00,,,0.73,WUHU21636XXSP,2013-05-17 22:58:00,
2013-05-17 18:03:00,67.0,57.8,29.97,SE,135,0.0,6.2,72,0.00,,,0.73,WUHU21636XXSP,2013-05-17 23:03:00,
2013-05-17 18:08:00,66.8,57.6,29.97,South,180,0.0,0.0,72,0.00,,,0.73,WUHU21636XXSP,2013-05-17 23:08:00,
2013-05-17 18:13:00,66.5,57.3,29.97,SSE,157,0.0,0.0,72,0.00,,,0.73,WUHU21636XXSP,2013-05-17 23:13:00,
2013-05-17 18:18:00,66.5,57.3,29.98,NE,45,0.8,13.8,72,0.00,,,0.73,WUHU21636XXSP,2013-05-17 23:18:00,
2013-05-17 18:23:00,66.0,56.5,29.98,NNE,22,0.0,13.8,71,0.00,,,0.73,WUHU21636XXSP,2013-05-17 23:23:00,
2013-05-17 18:28:00,65.8,56.3,29.97,ESE,112,0.0,0.8,71,0.00,,,0.73,WUHU21636XXSP,2013-05-17 23:28:00,
2013-05-17 18:33:00,65.7,57.0,29.98,SE,135,0.0,0.0,73,0.00,,,0.73,WUHU21636XXSP,2013-05-17 23:33:00,
2013-05-17 18:38:00,65.5,56.8,29.98,SSE,157,0.0,0.0,73,0.00,,,0.73,WUHU21636XXSP,2013-05-17 23:38:00,
2013-05-17 18:43:00,65.5,56.8,29.98,ESE,112,0.0,0.0,73,0.00,,,0.73,WUHU21636XXSP,2013-05-17 23:43:00,
2013-05-17 18:48:00,65.3,56.9,29.98,East,90,0.0,0.0,74,0.00,,,0.73,WUHU21636XXSP,2013-05-17 23:48:00,
2013-05-17 18:53:00,65.1,56.4,29.98,ENE,67,0.0,0.0,73,0.00,,,0.73,WUHU21636XXSP,2013-05-17 23:53:00,
2013-05-17 18:58:00,64.9,56.5,29.97,ENE,67,0.0,0.0,74,0.00,,,0.73,WUHU21636XXSP,2013-05-17 23:58:00,
2013-05-17 19:03:00,64.9,56.5,29.97,ENE,67,0.0,0.0,74,0.00,,,0.73,WUHU21636XXSP,2013-05-18 00:03:00,
2013-05-17 19:08:00,64.6,56.6,29.97,West,270,0.0,0.0,75,0.00,,,0.73,WUHU21636XXSP,2013-05-18 00:08:00,
2013-05-17 19:13:00,64.2,56.2,29.97,East,90,0.0,0.0,75,0.00,,,0.73,WUHU21636XXSP,2013-05-18 00:13:00,
2013-05-17 19:18:00,63.9,55.6,29.97,ENE,67,0.0,0.0,74,0.00,,,0.73,WUHU21636XXSP,2013-05-18 00:18:00,
2013-05-17 19:23:00,63.9,56.0,29.98,East,90,0.0,0.0,75,0.00,,,0.73,WUHU21636XXSP,2013-05-18 00:23:00,
2013-05-17 19:28:00,63.8,55.9,29.98,ESE,112,0.0,0.0,75,0.00,,,0.73,WUHU21636XXSP,2013-05-18 00:28:00,
2013-05-17 19:33:00,63.4,55.8,29.98,SSE,157,0.0,0.0,76,0.00,,,0.73,WUHU21636XXSP,2013-05-18 00:33:00,
2013-05-17 19:38:00,63.2,55.3,29.98,WNW,292,0.0,0.0,75,0.00,,,0.73,WUHU21636XXSP,2013-05-18 00:38:00,
2013-05-17 19:43:00,63.0,54.7,29.98,South,180,0.0,0.0,74,0.00,,,0.73,WUHU21636XXSP,2013-05-18 00:43:00,
2013-05-17 19:48:00,62.7,54.8,29.98,ESE,112,0.0,0.0,75,0.00,,,0.73,WUHU21636XXSP,2013-05-18 00:48:00,
2013-05-17 19:53:00,62.3,54.7,29.98,ESE,112,0.0,0.0,76,0.00,,,0.73,WUHU21636XXSP,2013-05-18 00:53:00,
2013-05-17 19:58:00,62.1,54.5,29.98,ESE,112,0.0,0.0,76,0.00,,,0.73,WUHU21636XXSP,2013-05-18 00:58:00,
2013-05-17 20:03:00,61.7,54.2,29.98,East,90,0.0,0.0,76,0.00,,,0.73,WUHU21636XXSP,2013-05-18 01:03:00,
2013-05-17 20:08:00,61.5,54.3,29.98,SE,135,0.0,0.0,77,0.00,,,0.73,WUHU21636XXSP,2013-05-18 01:08:00,
2013-05-17 20:13:00,61.3,54.1,29.98,South,180,0.0,0.0,77,0.00,,,0.73,WUHU21636XXSP,2013-05-18 01:13:00,
2013-05-17 20:18:00,61.1,54.3,29.99,South,180,0.0,0.0,78,0.00,,,0.73,WUHU21636XXSP,2013-05-18 01:18:00,
2013-05-17 20:23:00,61.0,54.2,29.98,South,180,0.0,0.0,78,0.00,,,0.73,WUHU21636XXSP,2013-05-18 01:23:00,
2013-05-17 20:28:00,60.8,54.0,29.99,South,180,0.0,0.0,78,0.00,,,0.73,WUHU21636XXSP,2013-05-18 01:28:00,
2013-05-17 20:33:00,60.6,53.8,29.99,South,180,0.0,0.0,78,0.00,,,0.73,WUHU21636XXSP,2013-05-18 01:33:00,
2013-05-17 20:38:00,60.4,53.6,29.98,South,180,0.0,0.0,78,0.00,,,0.73,WUHU21636XXSP,2013-05-18 01:38:00,
2013-05-17 20:43:00,60.4,53.9,29.99,South,180,0.0,0.0,79,0.00,,,0.73,WUHU21636XXSP,2013-05-18 01:43:00,
2013-05-17 20:48:00,60.1,53.6,29.99,South,180,0.0,0.0,79,0.00,,,0.73,WUHU21636XXSP,2013-05-18 01:48:00,
2013-05-17 20:53:00,59.8,53.4,29.99,South,180,0.0,0.0,79,0.00,,,0.73,WUHU21636XXSP,2013-05-18 01:53:00,
2013-05-17 20:58:00,59.8,53.4,29.99,South,180,0.0,0.0,79,0.00,,,0.73,WUHU21636XXSP,2013-05-18 01:58:00,
2013-05-17 21:03:00,59.6,53.2,29.99,South,180,0.0,0.0,79,0.00,,,0.73,WUHU21636XXSP,2013-05-18 02:03:00,
2013-05-17 21:08:00,59.4,53.0,29.99,South,180,0.0,0.0,79,0.00,,,0.73,WUHU21636XXSP,2013-05-18 02:08:00,
2013-05-17 21:13:00,59.2,52.8,30.00,South,180,0.0,0.0,79,0.00,,,0.73,WUHU21636XXSP,2013-05-18 02:13:00,
2013-05-17 21:18:00,59.1,52.7,29.99,South,180,0.0,0.0,79,0.00,,,0.73,WUHU21636XXSP,2013-05-18 02:18:00,
2013-05-17 21:23:00,58.7,52.3,29.99,South,180,0.0,0.0,79,0.00,,,0.73,WUHU21636XXSP,2013-05-18 02:23:00,
2013-05-17 21:28:00,58.7,52.6,29.99,South,180,0.0,0.0,80,0.00,,,0.73,WUHU21636XXSP,2013-05-18 02:28:00,
2013-05-17 21:33:00,58.7,52.6,29.99,South,180,0.0,0.0,80,0.00,,,0.73,WUHU21636XXSP,2013-05-18 02:33:00,
2013-05-17 21:38:00,58.5,52.4,29.99,SSE,157,0.0,0.0,80,0.00,,,0.73,WUHU21636XXSP,2013-05-18 02:38:00,
2013-05-17 21:43:00,58.3,52.2,29.99,East,90,0.0,0.0,80,0.00,,,0.73,WUHU21636XXSP,2013-05-18 02:43:00,
2013-05-17 21:48:00,58.2,51.8,29.99,East,90,0.0,0.0,79,0.00,,,0.73,WUHU21636XXSP,2013-05-18 02:48:00,
2013-05-17 21:53:00,58.0,51.5,29.99,East,90,0.0,0.0,79,0.00,,,0.73,WUHU21636XXSP,2013-05-18 02:53:00,
2013-05-17 21:58:00,57.8,51.3,30.00,ESE,112,0.0,0.0,79,0.00,,,0.73,WUHU21636XXSP,2013-05-18 02:58:00,
2013-05-17 22:03:00,57.5,51.1,30.00,North,0,0.0,0.0,79,0.00,,,0.73,WUHU21636XXSP,2013-05-18 03:03:00,
2013-05-17 22:08:00,57.3,50.9,30.00,North,0,0.0,0.0,79,0.00,,,0.73,WUHU21636XXSP,2013-05-18 03:08:00,
2013-05-17 22:13:00,57.3,50.9,30.00,NE,45,0.0,0.0,79,0.00,,,0.73,WUHU21636XXSP,2013-05-18 03:13:00,
2013-05-17 22:18:00,57.3,50.9,30.00,NE,45,0.0,0.0,79,0.00,,,0.73,WUHU21636XXSP,2013-05-18 03:18:00,
2013-05-17 22:23:00,57.2,50.8,30.00,ESE,112,0.0,0.0,79,0.00,,,0.73,WUHU21636XXSP,2013-05-18 03:23:00,
2013-05-17 22:28:00,57.0,50.6,30.00,ESE,112,0.0,0.0,79,0.00,,,0.73,WUHU21636XXSP,2013-05-18 03:28:00,
2013-05-17 22:33:00,56.8,50.4,30.00,ESE,112,0.0,0.0,79,0.00,,,0.73,WUHU21636XXSP,2013-05-18 03:33:00,
2013-05-17 22:38:00,56.6,50.5,30.00,ESE,112,0.0,0.0,80,0.00,,,0.73,WUHU21636XXSP,2013-05-18 03:38:00,
2013-05-17 22:43:00,56.4,50.3,30.01,ESE,112,0.0,0.0,80,0.00,,,0.73,WUHU21636XXSP,2013-05-18 03:43:00,
2013-05-17 22:48:00,56.4,50.3,30.00,ESE,112,0.0,0.0,80,0.00,,,0.73,WUHU21636XXSP,2013-05-18 03:48:00,
2013-05-17 22:53:00,56.1,50.0,30.01,ESE,112,0.0,0.0,80,0.00,,,0.73,WUHU21636XXSP,2013-05-18 03:53:00,
2013-05-17 22:58:00,55.9,49.8,30.01,ESE,112,0.0,0.0,80,0.00,,,0.73,WUHU21636XXSP,2013-05-18 03:58:00,
2013-05-17 23:01:00,55.7,49.6,30.01,ESE,112,0.0,0.0,80,0.00,,,0.73,WUHU21636XXSP,2013-05-18 04:01:00,
2013-05-17 23:06:00,55.7,49.9,30.01,SE,135,0.0,0.0,81,0.00,,,0.73,WUHU21636XXSP,2013-05-18 04:06:00,
2013-05-17 23:11:00,55.4,49.7,30.02,SE,135,0.0,0.0,81,0.00,,,0.73,WUHU21636XXSP,2013-05-18 04:11:00,
2013-05-17 23:16:00,55.3,49.3,30.02,SE,135,0.0,0.0,80,0.00,,,0.73,WUHU21636XXSP,2013-05-18 04:16:00,
2013-05-17 23:21:00,55.3,49.3,30.01,SE,135,0.0,0.0,80,0.00,,,0.73,WUHU21636XXSP,2013-05-18 04:21:00,
2013-05-17 23:26:00,55.1,49.1,30.02,SE,135,0.0,0.0,80,0.00,,,0.73,WUHU21636XXSP,2013-05-18 04:26:00,
2013-05-17 23:31:00,55.1,49.4,30.02,SE,135,0.0,0.0,81,0.00,,,0.73,WUHU21636XXSP,2013-05-18 04:31:00,
2013-05-17 23:36:00,54.7,49.0,30.02,SE,135,0.0,0.0,81,0.00,,,0.73,WUHU21636XXSP,2013-05-18 04:36:00,
2013-05-17 23:41:00,54.5,48.8,30.02,SE,135,0.0,0.0,81,0.00,,,0.73,WUHU21636XXSP,2013-05-18 04:41:00,
2013-05-17 23:46:00,54.5,48.8,30.02,SE,135,0.0,0.0,81,0.00,,,0.73,WUHU21636XXSP,2013-05-18 04:46:00,
2013-05-17 23:51:00,54.2,48.5,30.02,SE,135,0.0,0.0,81,0.00,,,0.73,WUHU21636XXSP,2013-05-18 04:51:00,
2013-05-17 23:56:00,54.2,48.5,30.02,SE,135,0.0,0.0,81,0.00,,,0.73,WUHU21636XXSP,2013-05-18 04:56:00,